sensor_id;sensor_type;location;lat;lon;timestamp;temperature;humidity
15426;DHT22;7812;50.072;7.036;2022-11-20T00:00:11;3.70;99.90
15426;DHT22;7812;50.072;7.036;2022-11-20T00:02:37;3.70;99.90
15426;DHT22;7812;50.072;7.036;2022-11-20T00:05:03;3.70;99.90
15426;DHT22;7812;50.072;7.036;2022-11-20T00:07:29;3.80;99.90
15426;DHT22;7812;50.072;7.036;2022-11-20T00:09:55;3.70;99.90
15426;DHT22;7812;50.072;7.036;2022-11-20T00:12:20;3.70;99.90
15426;DHT22;7812;50.072;7.036;2022-11-20T00:14:46;3.80;99.90
15426;DHT22;7812;50.072;7.036;2022-11-20T00:17:12;3.80;99.90
15426;DHT22;7812;50.072;7.036;2022-11-20T00:19:38;3.60;99.90
15426;DHT22;7812;50.072;7.036;2022-11-20T00:22:04;3.70;99.90
15426;DHT22;7812;50.072;7.036;2022-11-20T00:24:30;3.70;99.90
15426;DHT22;7812;50.072;7.036;2022-11-20T00:26:56;3.40;99.90
15426;DHT22;7812;50.072;7.036;2022-11-20T00:29:21;3.30;99.90
15426;DHT22;7812;50.072;7.036;2022-11-20T00:31:47;3.30;99.90
15426;DHT22;7812;50.072;7.036;2022-11-20T00:34:13;3.30;99.90
15426;DHT22;7812;50.072;7.036;2022-11-20T00:36:39;3.40;99.90
15426;DHT22;7812;50.072;7.036;2022-11-20T00:39:04;3.50;99.90
15426;DHT22;7812;50.072;7.036;2022-11-20T00:41:30;3.60;99.90
15426;DHT22;7812;50.072;7.036;2022-11-20T00:43:57;3.60;99.90
15426;DHT22;7812;50.072;7.036;2022-11-20T00:46:25;3.60;99.90
15426;DHT22;7812;50.072;7.036;2022-11-20T00:48:52;3.70;99.90
15426;DHT22;7812;50.072;7.036;2022-11-20T00:51:20;3.80;99.90
15426;DHT22;7812;50.072;7.036;2022-11-20T00:53:46;3.80;99.90
15426;DHT22;7812;50.072;7.036;2022-11-20T00:56:14;3.70;99.90
15426;DHT22;7812;50.072;7.036;2022-11-20T00:58:42;3.70;99.90
15426;DHT22;7812;50.072;7.036;2022-11-20T01:01:13;3.70;99.90
15426;DHT22;7812;50.072;7.036;2022-11-20T01:03:41;3.70;99.90
15426;DHT22;7812;50.072;7.036;2022-11-20T01:06:17;3.50;99.90
15426;DHT22;7812;50.072;7.036;2022-11-20T01:08:44;3.40;99.90
15426;DHT22;7812;50.072;7.036;2022-11-20T01:11:12;3.40;99.90
15426;DHT22;7812;50.072;7.036;2022-11-20T01:13:41;3.40;99.90
15426;DHT22;7812;50.072;7.036;2022-11-20T01:16:09;3.30;99.90
15426;DHT22;7812;50.072;7.036;2022-11-20T01:18:36;3.40;99.90
15426;DHT22;7812;50.072;7.036;2022-11-20T01:21:06;3.40;99.90
15426;DHT22;7812;50.072;7.036;2022-11-20T01:23:36;3.20;99.90
15426;DHT22;7812;50.072;7.036;2022-11-20T01:26:11;3.30;99.90
15426;DHT22;7812;50.072;7.036;2022-11-20T01:28:38;3.40;99.90
15426;DHT22;7812;50.072;7.036;2022-11-20T01:31:16;3.50;99.90
15426;DHT22;7812;50.072;7.036;2022-11-20T01:33:43;3.60;99.90
15426;DHT22;7812;50.072;7.036;2022-11-20T01:36:10;3.50;99.90
15426;DHT22;7812;50.072;7.036;2022-11-20T01:38:36;3.40;99.90
15426;DHT22;7812;50.072;7.036;2022-11-20T01:41:03;3.50;99.90
15426;DHT22;7812;50.072;7.036;2022-11-20T01:43:29;3.60;99.90
15426;DHT22;7812;50.072;7.036;2022-11-20T01:46:19;3.70;99.90
15426;DHT22;7812;50.072;7.036;2022-11-20T01:48:53;3.50;99.90
15426;DHT22;7812;50.072;7.036;2022-11-20T01:52:07;3.50;99.90
15426;DHT22;7812;50.072;7.036;2022-11-20T01:54:35;3.50;99.90
15426;DHT22;7812;50.072;7.036;2022-11-20T01:57:04;3.50;99.90
15426;DHT22;7812;50.072;7.036;2022-11-20T01:59:31;3.60;99.90
15426;DHT22;7812;50.072;7.036;2022-11-20T02:01:58;3.70;99.90
15426;DHT22;7812;50.072;7.036;2022-11-20T02:04:24;3.80;99.90
15426;DHT22;7812;50.072;7.036;2022-11-20T02:06:57;3.80;99.90
15426;DHT22;7812;50.072;7.036;2022-11-20T02:09:25;3.80;99.90
15426;DHT22;7812;50.072;7.036;2022-11-20T02:11:51;3.80;99.90
15426;DHT22;7812;50.072;7.036;2022-11-20T02:14:17;3.80;99.90
15426;DHT22;7812;50.072;7.036;2022-11-20T02:16:48;3.80;99.90
15426;DHT22;7812;50.072;7.036;2022-11-20T02:19:26;3.60;99.90
15426;DHT22;7812;50.072;7.036;2022-11-20T02:22:05;3.50;99.90
15426;DHT22;7812;50.072;7.036;2022-11-20T02:24:33;3.50;99.90
15426;DHT22;7812;50.072;7.036;2022-11-20T02:27:12;3.30;99.90
15426;DHT22;7812;50.072;7.036;2022-11-20T02:29:42;3.40;99.90
15426;DHT22;7812;50.072;7.036;2022-11-20T02:34:48;3.70;99.90
15426;DHT22;7812;50.072;7.036;2022-11-20T02:37:14;3.60;99.90
15426;DHT22;7812;50.072;7.036;2022-11-20T02:39:41;3.50;99.90
15426;DHT22;7812;50.072;7.036;2022-11-20T02:42:08;3.30;99.90
15426;DHT22;7812;50.072;7.036;2022-11-20T02:44:34;3.40;99.90
15426;DHT22;7812;50.072;7.036;2022-11-20T02:47:00;3.70;99.90
15426;DHT22;7812;50.072;7.036;2022-11-20T02:49:26;3.60;99.90
15426;DHT22;7812;50.072;7.036;2022-11-20T02:51:52;3.50;99.90
15426;DHT22;7812;50.072;7.036;2022-11-20T02:54:18;3.40;99.90
15426;DHT22;7812;50.072;7.036;2022-11-20T02:56:44;3.30;99.90
15426;DHT22;7812;50.072;7.036;2022-11-20T02:59:10;3.40;99.90
15426;DHT22;7812;50.072;7.036;2022-11-20T03:01:35;3.20;99.90
15426;DHT22;7812;50.072;7.036;2022-11-20T03:04:05;3.20;99.90
15426;DHT22;7812;50.072;7.036;2022-11-20T03:06:31;3.30;99.90
15426;DHT22;7812;50.072;7.036;2022-11-20T03:08:57;3.30;99.90
15426;DHT22;7812;50.072;7.036;2022-11-20T03:11:23;3.40;99.90
15426;DHT22;7812;50.072;7.036;2022-11-20T03:13:49;3.50;99.90
15426;DHT22;7812;50.072;7.036;2022-11-20T03:16:18;3.70;99.90
15426;DHT22;7812;50.072;7.036;2022-11-20T03:18:45;3.90;99.90
15426;DHT22;7812;50.072;7.036;2022-11-20T03:21:12;3.60;99.90
15426;DHT22;7812;50.072;7.036;2022-11-20T03:23:39;3.50;99.90
15426;DHT22;7812;50.072;7.036;2022-11-20T03:26:20;3.50;99.90
15426;DHT22;7812;50.072;7.036;2022-11-20T03:28:56;3.50;99.90
15426;DHT22;7812;50.072;7.036;2022-11-20T03:31:26;3.50;99.90
15426;DHT22;7812;50.072;7.036;2022-11-20T03:33:52;3.70;99.90
15426;DHT22;7812;50.072;7.036;2022-11-20T03:36:21;4.00;99.90
15426;DHT22;7812;50.072;7.036;2022-11-20T03:38:47;4.00;99.90
15426;DHT22;7812;50.072;7.036;2022-11-20T03:41:16;4.10;99.90
15426;DHT22;7812;50.072;7.036;2022-11-20T03:43:47;4.20;99.90
15426;DHT22;7812;50.072;7.036;2022-11-20T03:46:13;4.30;99.90
15426;DHT22;7812;50.072;7.036;2022-11-20T03:48:39;4.40;99.90
15426;DHT22;7812;50.072;7.036;2022-11-20T03:51:12;4.40;99.90
15426;DHT22;7812;50.072;7.036;2022-11-20T03:53:39;4.40;99.90
15426;DHT22;7812;50.072;7.036;2022-11-20T03:56:06;4.40;99.90
15426;DHT22;7812;50.072;7.036;2022-11-20T03:58:34;4.20;99.90
15426;DHT22;7812;50.072;7.036;2022-11-20T04:01:32;4.30;99.90
15426;DHT22;7812;50.072;7.036;2022-11-20T04:03:58;4.20;99.90
15426;DHT22;7812;50.072;7.036;2022-11-20T04:06:35;4.10;99.90
15426;DHT22;7812;50.072;7.036;2022-11-20T04:09:01;4.10;99.90
15426;DHT22;7812;50.072;7.036;2022-11-20T04:11:32;4.30;99.90
15426;DHT22;7812;50.072;7.036;2022-11-20T04:14:01;4.40;99.90
15426;DHT22;7812;50.072;7.036;2022-11-20T04:16:30;4.30;99.90
15426;DHT22;7812;50.072;7.036;2022-11-20T04:18:59;4.20;99.90
15426;DHT22;7812;50.072;7.036;2022-11-20T04:21:26;4.00;99.90
15426;DHT22;7812;50.072;7.036;2022-11-20T04:23:52;3.80;99.90
15426;DHT22;7812;50.072;7.036;2022-11-20T04:26:18;3.80;99.90
15426;DHT22;7812;50.072;7.036;2022-11-20T04:28:44;3.80;99.90
15426;DHT22;7812;50.072;7.036;2022-11-20T04:31:13;3.90;99.90
15426;DHT22;7812;50.072;7.036;2022-11-20T04:33:39;3.90;99.90
15426;DHT22;7812;50.072;7.036;2022-11-20T04:36:10;4.00;99.90
15426;DHT22;7812;50.072;7.036;2022-11-20T04:38:36;4.10;99.90
15426;DHT22;7812;50.072;7.036;2022-11-20T04:41:04;4.20;99.90
15426;DHT22;7812;50.072;7.036;2022-11-20T04:43:30;4.20;99.90
15426;DHT22;7812;50.072;7.036;2022-11-20T04:45:57;4.20;99.90
15426;DHT22;7812;50.072;7.036;2022-11-20T04:48:24;4.30;99.90
15426;DHT22;7812;50.072;7.036;2022-11-20T04:50:51;4.30;99.90
15426;DHT22;7812;50.072;7.036;2022-11-20T04:53:17;4.40;99.90
15426;DHT22;7812;50.072;7.036;2022-11-20T04:55:43;4.50;99.90
15426;DHT22;7812;50.072;7.036;2022-11-20T04:58:10;4.50;99.90
15426;DHT22;7812;50.072;7.036;2022-11-20T05:00:36;4.30;99.90
15426;DHT22;7812;50.072;7.036;2022-11-20T05:03:02;4.30;99.90
15426;DHT22;7812;50.072;7.036;2022-11-20T05:05:28;4.10;99.90
15426;DHT22;7812;50.072;7.036;2022-11-20T05:07:56;4.10;99.90
15426;DHT22;7812;50.072;7.036;2022-11-20T05:10:23;4.30;99.90
15426;DHT22;7812;50.072;7.036;2022-11-20T05:12:49;4.40;99.90
15426;DHT22;7812;50.072;7.036;2022-11-20T05:15:15;4.60;99.90
15426;DHT22;7812;50.072;7.036;2022-11-20T05:17:41;4.60;99.90
15426;DHT22;7812;50.072;7.036;2022-11-20T05:20:11;4.70;99.90
15426;DHT22;7812;50.072;7.036;2022-11-20T05:22:37;4.60;99.90
15426;DHT22;7812;50.072;7.036;2022-11-20T05:25:03;4.70;99.90
15426;DHT22;7812;50.072;7.036;2022-11-20T05:27:29;4.80;99.90
15426;DHT22;7812;50.072;7.036;2022-11-20T05:29:55;4.60;99.90
15426;DHT22;7812;50.072;7.036;2022-11-20T05:32:21;4.60;99.90
15426;DHT22;7812;50.072;7.036;2022-11-20T05:34:51;4.50;99.90
15426;DHT22;7812;50.072;7.036;2022-11-20T05:37:17;4.50;99.90
15426;DHT22;7812;50.072;7.036;2022-11-20T05:39:42;4.30;99.90
15426;DHT22;7812;50.072;7.036;2022-11-20T05:42:08;4.10;99.90
15426;DHT22;7812;50.072;7.036;2022-11-20T05:44:53;3.80;99.90
15426;DHT22;7812;50.072;7.036;2022-11-20T05:47:19;3.90;99.90
15426;DHT22;7812;50.072;7.036;2022-11-20T05:49:45;4.10;99.90
15426;DHT22;7812;50.072;7.036;2022-11-20T05:52:11;4.30;99.90
15426;DHT22;7812;50.072;7.036;2022-11-20T05:54:37;4.20;99.90
15426;DHT22;7812;50.072;7.036;2022-11-20T05:57:03;4.30;99.90
15426;DHT22;7812;50.072;7.036;2022-11-20T05:59:29;4.50;99.90
15426;DHT22;7812;50.072;7.036;2022-11-20T06:01:54;4.70;99.90
15426;DHT22;7812;50.072;7.036;2022-11-20T06:04:20;4.80;99.90
15426;DHT22;7812;50.072;7.036;2022-11-20T06:06:46;4.90;99.90
15426;DHT22;7812;50.072;7.036;2022-11-20T06:09:12;4.90;99.90
15426;DHT22;7812;50.072;7.036;2022-11-20T06:11:38;4.90;99.90
15426;DHT22;7812;50.072;7.036;2022-11-20T06:14:04;4.60;99.90
15426;DHT22;7812;50.072;7.036;2022-11-20T06:16:30;4.50;99.90
15426;DHT22;7812;50.072;7.036;2022-11-20T06:18:56;4.60;99.90
15426;DHT22;7812;50.072;7.036;2022-11-20T06:21:22;4.60;99.90
15426;DHT22;7812;50.072;7.036;2022-11-20T06:23:49;4.60;99.90
15426;DHT22;7812;50.072;7.036;2022-11-20T06:26:18;4.50;99.90
15426;DHT22;7812;50.072;7.036;2022-11-20T06:28:44;4.30;99.90
15426;DHT22;7812;50.072;7.036;2022-11-20T06:31:13;4.10;99.90
15426;DHT22;7812;50.072;7.036;2022-11-20T06:33:39;4.10;99.90
15426;DHT22;7812;50.072;7.036;2022-11-20T06:36:05;4.30;99.90
15426;DHT22;7812;50.072;7.036;2022-11-20T06:38:32;4.40;99.90
15426;DHT22;7812;50.072;7.036;2022-11-20T06:40:58;4.50;99.90
15426;DHT22;7812;50.072;7.036;2022-11-20T06:43:24;4.50;99.90
15426;DHT22;7812;50.072;7.036;2022-11-20T06:45:54;4.60;99.90
15426;DHT22;7812;50.072;7.036;2022-11-20T06:48:21;4.60;99.90
15426;DHT22;7812;50.072;7.036;2022-11-20T06:50:47;4.60;99.90
15426;DHT22;7812;50.072;7.036;2022-11-20T06:53:13;4.50;99.90
15426;DHT22;7812;50.072;7.036;2022-11-20T06:55:42;4.50;99.90
15426;DHT22;7812;50.072;7.036;2022-11-20T06:58:09;4.60;99.90
15426;DHT22;7812;50.072;7.036;2022-11-20T07:00:35;4.50;99.90
15426;DHT22;7812;50.072;7.036;2022-11-20T07:03:05;4.50;99.90
15426;DHT22;7812;50.072;7.036;2022-11-20T07:05:31;4.30;99.90
15426;DHT22;7812;50.072;7.036;2022-11-20T07:07:57;4.20;99.90
15426;DHT22;7812;50.072;7.036;2022-11-20T07:10:24;4.30;99.90
15426;DHT22;7812;50.072;7.036;2022-11-20T07:12:53;4.50;99.90
15426;DHT22;7812;50.072;7.036;2022-11-20T07:15:21;4.60;99.90
15426;DHT22;7812;50.072;7.036;2022-11-20T07:17:47;4.60;99.90
15426;DHT22;7812;50.072;7.036;2022-11-20T07:20:13;4.60;99.90
15426;DHT22;7812;50.072;7.036;2022-11-20T07:22:40;4.60;99.90
15426;DHT22;7812;50.072;7.036;2022-11-20T07:25:06;4.60;99.90
15426;DHT22;7812;50.072;7.036;2022-11-20T07:27:32;4.70;99.90
15426;DHT22;7812;50.072;7.036;2022-11-20T07:29:58;4.80;99.90
15426;DHT22;7812;50.072;7.036;2022-11-20T07:32:24;4.80;99.90
15426;DHT22;7812;50.072;7.036;2022-11-20T07:34:50;4.70;99.90
15426;DHT22;7812;50.072;7.036;2022-11-20T07:37:16;4.60;99.90
15426;DHT22;7812;50.072;7.036;2022-11-20T07:39:48;4.60;99.90
15426;DHT22;7812;50.072;7.036;2022-11-20T07:42:16;4.60;99.90
15426;DHT22;7812;50.072;7.036;2022-11-20T07:44:45;4.60;99.90
15426;DHT22;7812;50.072;7.036;2022-11-20T07:47:11;4.60;99.90
15426;DHT22;7812;50.072;7.036;2022-11-20T07:49:36;4.70;99.90
15426;DHT22;7812;50.072;7.036;2022-11-20T07:52:02;4.80;99.90
15426;DHT22;7812;50.072;7.036;2022-11-20T07:54:28;4.90;99.90
15426;DHT22;7812;50.072;7.036;2022-11-20T07:56:54;5.00;99.90
15426;DHT22;7812;50.072;7.036;2022-11-20T07:59:20;5.00;99.90
15426;DHT22;7812;50.072;7.036;2022-11-20T08:01:46;5.00;99.90
15426;DHT22;7812;50.072;7.036;2022-11-20T08:04:14;5.10;99.90
15426;DHT22;7812;50.072;7.036;2022-11-20T08:06:42;5.00;99.90
15426;DHT22;7812;50.072;7.036;2022-11-20T08:09:07;5.00;99.90
15426;DHT22;7812;50.072;7.036;2022-11-20T08:11:33;5.20;99.90
15426;DHT22;7812;50.072;7.036;2022-11-20T08:14:18;5.00;99.90
15426;DHT22;7812;50.072;7.036;2022-11-20T08:16:45;4.90;99.90
15426;DHT22;7812;50.072;7.036;2022-11-20T08:19:12;4.70;99.90
15426;DHT22;7812;50.072;7.036;2022-11-20T08:21:39;4.60;99.90
15426;DHT22;7812;50.072;7.036;2022-11-20T08:24:06;4.70;99.90
15426;DHT22;7812;50.072;7.036;2022-11-20T08:26:32;4.90;99.90
15426;DHT22;7812;50.072;7.036;2022-11-20T08:28:58;4.90;99.90
15426;DHT22;7812;50.072;7.036;2022-11-20T08:31:26;5.00;99.90
15426;DHT22;7812;50.072;7.036;2022-11-20T08:33:52;5.00;99.90
15426;DHT22;7812;50.072;7.036;2022-11-20T08:36:19;5.00;99.90
15426;DHT22;7812;50.072;7.036;2022-11-20T08:38:53;5.10;99.90
15426;DHT22;7812;50.072;7.036;2022-11-20T08:41:19;5.00;99.90
15426;DHT22;7812;50.072;7.036;2022-11-20T08:44:03;5.00;99.90
15426;DHT22;7812;50.072;7.036;2022-11-20T08:46:41;5.20;99.90
15426;DHT22;7812;50.072;7.036;2022-11-20T08:49:10;5.30;99.90
15426;DHT22;7812;50.072;7.036;2022-11-20T08:51:37;5.20;99.90
15426;DHT22;7812;50.072;7.036;2022-11-20T08:54:04;5.00;99.90
15426;DHT22;7812;50.072;7.036;2022-11-20T08:56:31;5.10;99.90
15426;DHT22;7812;50.072;7.036;2022-11-20T08:58:57;5.20;99.90
15426;DHT22;7812;50.072;7.036;2022-11-20T09:01:25;5.30;99.90
15426;DHT22;7812;50.072;7.036;2022-11-20T09:03:51;5.30;99.90
15426;DHT22;7812;50.072;7.036;2022-11-20T09:06:29;5.30;99.90
15426;DHT22;7812;50.072;7.036;2022-11-20T09:08:55;5.30;99.90
15426;DHT22;7812;50.072;7.036;2022-11-20T09:11:22;5.60;99.90
15426;DHT22;7812;50.072;7.036;2022-11-20T09:13:48;5.60;99.90
15426;DHT22;7812;50.072;7.036;2022-11-20T09:16:15;5.80;99.90
15426;DHT22;7812;50.072;7.036;2022-11-20T09:18:40;5.80;99.90
15426;DHT22;7812;50.072;7.036;2022-11-20T09:21:12;6.00;99.90
15426;DHT22;7812;50.072;7.036;2022-11-20T09:23:39;6.10;99.90
15426;DHT22;7812;50.072;7.036;2022-11-20T09:26:09;6.20;99.90
15426;DHT22;7812;50.072;7.036;2022-11-20T09:28:35;6.00;99.90
15426;DHT22;7812;50.072;7.036;2022-11-20T09:31:05;6.10;99.90
15426;DHT22;7812;50.072;7.036;2022-11-20T09:33:32;6.10;99.90
15426;DHT22;7812;50.072;7.036;2022-11-20T09:35:58;6.00;99.90
15426;DHT22;7812;50.072;7.036;2022-11-20T09:38:24;5.60;99.90
15426;DHT22;7812;50.072;7.036;2022-11-20T09:41:04;5.30;99.90
15426;DHT22;7812;50.072;7.036;2022-11-20T09:46:25;5.50;99.90
15426;DHT22;7812;50.072;7.036;2022-11-20T09:52:00;6.50;99.90
15426;DHT22;7812;50.072;7.036;2022-11-20T09:54:35;6.80;99.90
15426;DHT22;7812;50.072;7.036;2022-11-20T09:57:22;6.50;99.90
15426;DHT22;7812;50.072;7.036;2022-11-20T09:59:53;6.70;99.90
15426;DHT22;7812;50.072;7.036;2022-11-20T10:07:38;6.60;99.90
15426;DHT22;7812;50.072;7.036;2022-11-20T10:10:15;6.40;99.90
15426;DHT22;7812;50.072;7.036;2022-11-20T10:13:08;6.40;99.90
15426;DHT22;7812;50.072;7.036;2022-11-20T10:20:38;6.40;99.90
15426;DHT22;7812;50.072;7.036;2022-11-20T10:29:29;6.40;99.90
15426;DHT22;7812;50.072;7.036;2022-11-20T10:31:45;6.30;99.90
15426;DHT22;7812;50.072;7.036;2022-11-20T10:34:26;6.40;99.90
15426;DHT22;7812;50.072;7.036;2022-11-20T10:36:59;6.70;99.90
15426;DHT22;7812;50.072;7.036;2022-11-20T10:39:35;6.70;99.90
15426;DHT22;7812;50.072;7.036;2022-11-20T10:42:02;6.90;99.90
15426;DHT22;7812;50.072;7.036;2022-11-20T10:44:34;7.10;99.90
15426;DHT22;7812;50.072;7.036;2022-11-20T10:47:19;7.30;99.90
15426;DHT22;7812;50.072;7.036;2022-11-20T10:49:53;7.10;99.90
15426;DHT22;7812;50.072;7.036;2022-11-20T10:52:48;7.30;99.90
15426;DHT22;7812;50.072;7.036;2022-11-20T10:58:19;7.80;99.90
15426;DHT22;7812;50.072;7.036;2022-11-20T11:00:47;7.90;99.90
15426;DHT22;7812;50.072;7.036;2022-11-20T11:03:31;7.80;99.90
15426;DHT22;7812;50.072;7.036;2022-11-20T11:08:53;7.50;99.90
15426;DHT22;7812;50.072;7.036;2022-11-20T11:11:32;7.70;99.90
15426;DHT22;7812;50.072;7.036;2022-11-20T11:14:12;7.90;99.90
15426;DHT22;7812;50.072;7.036;2022-11-20T11:16:56;7.80;99.90
15426;DHT22;7812;50.072;7.036;2022-11-20T11:19:22;7.90;99.90
15426;DHT22;7812;50.072;7.036;2022-11-20T11:21:51;7.90;99.90
15426;DHT22;7812;50.072;7.036;2022-11-20T11:24:29;8.10;99.90
15426;DHT22;7812;50.072;7.036;2022-11-20T11:27:00;8.40;99.90
15426;DHT22;7812;50.072;7.036;2022-11-20T11:29:32;8.30;99.90
15426;DHT22;7812;50.072;7.036;2022-11-20T11:32:27;8.40;99.90
15426;DHT22;7812;50.072;7.036;2022-11-20T11:35:04;8.40;99.90
15426;DHT22;7812;50.072;7.036;2022-11-20T11:37:34;8.40;99.90
15426;DHT22;7812;50.072;7.036;2022-11-20T11:40:03;8.30;99.90
15426;DHT22;7812;50.072;7.036;2022-11-20T11:42:29;7.90;99.90
15426;DHT22;7812;50.072;7.036;2022-11-20T11:44:58;7.90;99.90
15426;DHT22;7812;50.072;7.036;2022-11-20T11:55:12;8.20;99.90
15426;DHT22;7812;50.072;7.036;2022-11-20T12:00:26;8.40;99.90
15426;DHT22;7812;50.072;7.036;2022-11-20T12:05:36;8.70;99.90
15426;DHT22;7812;50.072;7.036;2022-11-20T12:16:12;9.20;99.90
15426;DHT22;7812;50.072;7.036;2022-11-20T12:18:39;9.30;99.90
15426;DHT22;7812;50.072;7.036;2022-11-20T12:35:51;9.80;99.90
15426;DHT22;7812;50.072;7.036;2022-11-20T12:43:31;9.60;99.90
15426;DHT22;7812;50.072;7.036;2022-11-20T12:47:08;9.40;99.90
15426;DHT22;7812;50.072;7.036;2022-11-20T12:52:38;9.10;99.90
15426;DHT22;7812;50.072;7.036;2022-11-20T12:55:28;9.00;99.90
15426;DHT22;7812;50.072;7.036;2022-11-20T13:00:47;9.00;99.90
15426;DHT22;7812;50.072;7.036;2022-11-20T13:08:41;9.20;99.90
15426;DHT22;7812;50.072;7.036;2022-11-20T13:11:17;9.30;99.90
15426;DHT22;7812;50.072;7.036;2022-11-20T13:13:56;9.30;99.90
15426;DHT22;7812;50.072;7.036;2022-11-20T13:19:04;9.10;99.90
15426;DHT22;7812;50.072;7.036;2022-11-20T13:24:31;9.00;99.90
15426;DHT22;7812;50.072;7.036;2022-11-20T13:29:35;8.90;99.90
15426;DHT22;7812;50.072;7.036;2022-11-20T13:34:32;8.70;99.90
15426;DHT22;7812;50.072;7.036;2022-11-20T13:36:59;8.70;99.90
15426;DHT22;7812;50.072;7.036;2022-11-20T13:39:33;8.70;99.90
15426;DHT22;7812;50.072;7.036;2022-11-20T13:44:38;8.50;99.90
15426;DHT22;7812;50.072;7.036;2022-11-20T13:47:21;8.60;99.90
15426;DHT22;7812;50.072;7.036;2022-11-20T13:49:48;8.50;99.90
15426;DHT22;7812;50.072;7.036;2022-11-20T13:56:06;8.50;99.90
15426;DHT22;7812;50.072;7.036;2022-11-20T14:03:34;8.40;99.90
15426;DHT22;7812;50.072;7.036;2022-11-20T14:06:03;8.50;99.90
15426;DHT22;7812;50.072;7.036;2022-11-20T14:11:26;8.30;99.90
15426;DHT22;7812;50.072;7.036;2022-11-20T14:16:30;8.30;99.90
15426;DHT22;7812;50.072;7.036;2022-11-20T14:18:57;8.30;99.90
15426;DHT22;7812;50.072;7.036;2022-11-20T14:21:29;8.30;99.90
15426;DHT22;7812;50.072;7.036;2022-11-20T14:24:10;8.30;99.90
15426;DHT22;7812;50.072;7.036;2022-11-20T14:26:38;8.20;99.90
15426;DHT22;7812;50.072;7.036;2022-11-20T14:29:19;8.30;99.90
15426;DHT22;7812;50.072;7.036;2022-11-20T14:31:46;8.20;99.90
15426;DHT22;7812;50.072;7.036;2022-11-20T14:34:17;8.20;99.90
15426;DHT22;7812;50.072;7.036;2022-11-20T14:36:44;8.20;99.90
15426;DHT22;7812;50.072;7.036;2022-11-20T14:39:28;8.20;99.90
15426;DHT22;7812;50.072;7.036;2022-11-20T14:41:54;8.20;99.90
15426;DHT22;7812;50.072;7.036;2022-11-20T14:44:26;8.10;99.90
15426;DHT22;7812;50.072;7.036;2022-11-20T14:46:52;8.10;99.90
15426;DHT22;7812;50.072;7.036;2022-11-20T14:49:19;8.10;99.90
15426;DHT22;7812;50.072;7.036;2022-11-20T14:51:45;8.00;99.90
15426;DHT22;7812;50.072;7.036;2022-11-20T14:54:15;7.90;99.90
15426;DHT22;7812;50.072;7.036;2022-11-20T14:56:42;7.80;99.90
15426;DHT22;7812;50.072;7.036;2022-11-20T14:59:09;7.80;99.90
15426;DHT22;7812;50.072;7.036;2022-11-20T15:01:35;7.70;99.90
15426;DHT22;7812;50.072;7.036;2022-11-20T15:04:01;7.70;99.90
15426;DHT22;7812;50.072;7.036;2022-11-20T15:06:30;7.70;99.90
15426;DHT22;7812;50.072;7.036;2022-11-20T15:08:57;7.70;99.90
15426;DHT22;7812;50.072;7.036;2022-11-20T15:11:28;7.70;99.90
15426;DHT22;7812;50.072;7.036;2022-11-20T15:13:55;7.80;99.90
15426;DHT22;7812;50.072;7.036;2022-11-20T15:16:22;7.80;99.90
15426;DHT22;7812;50.072;7.036;2022-11-20T15:18:49;7.80;99.90
15426;DHT22;7812;50.072;7.036;2022-11-20T15:21:17;7.70;99.90
15426;DHT22;7812;50.072;7.036;2022-11-20T15:23:43;7.60;99.90
15426;DHT22;7812;50.072;7.036;2022-11-20T15:26:11;7.60;99.90
15426;DHT22;7812;50.072;7.036;2022-11-20T15:28:42;7.50;99.90
15426;DHT22;7812;50.072;7.036;2022-11-20T15:31:14;7.50;99.90
15426;DHT22;7812;50.072;7.036;2022-11-20T15:33:40;7.40;99.90
15426;DHT22;7812;50.072;7.036;2022-11-20T15:36:09;7.40;99.90
15426;DHT22;7812;50.072;7.036;2022-11-20T15:38:35;7.30;99.90
15426;DHT22;7812;50.072;7.036;2022-11-20T15:41:01;7.30;99.90
15426;DHT22;7812;50.072;7.036;2022-11-20T15:43:26;7.30;99.90
15426;DHT22;7812;50.072;7.036;2022-11-20T15:46:21;7.20;99.90
15426;DHT22;7812;50.072;7.036;2022-11-20T15:48:53;7.30;99.90
15426;DHT22;7812;50.072;7.036;2022-11-20T15:51:38;7.30;99.90
15426;DHT22;7812;50.072;7.036;2022-11-20T15:56:35;7.10;99.90
15426;DHT22;7812;50.072;7.036;2022-11-20T15:59:01;7.10;99.90
15426;DHT22;7812;50.072;7.036;2022-11-20T16:01:27;7.20;99.90
15426;DHT22;7812;50.072;7.036;2022-11-20T16:03:52;7.20;99.90
15426;DHT22;7812;50.072;7.036;2022-11-20T16:06:18;7.20;99.90
15426;DHT22;7812;50.072;7.036;2022-11-20T16:08:44;7.10;99.90
15426;DHT22;7812;50.072;7.036;2022-11-20T16:11:15;7.10;99.90
15426;DHT22;7812;50.072;7.036;2022-11-20T16:13:42;7.10;99.90
15426;DHT22;7812;50.072;7.036;2022-11-20T16:16:30;7.10;99.90
15426;DHT22;7812;50.072;7.036;2022-11-20T16:18:56;7.00;99.90
15426;DHT22;7812;50.072;7.036;2022-11-20T16:21:22;6.80;99.90
15426;DHT22;7812;50.072;7.036;2022-11-20T16:24:00;6.80;99.90
15426;DHT22;7812;50.072;7.036;2022-11-20T16:26:26;6.70;99.90
15426;DHT22;7812;50.072;7.036;2022-11-20T16:28:52;6.60;99.90
15426;DHT22;7812;50.072;7.036;2022-11-20T16:31:19;6.60;99.90
15426;DHT22;7812;50.072;7.036;2022-11-20T16:33:56;6.70;99.90
15426;DHT22;7812;50.072;7.036;2022-11-20T16:36:23;6.70;99.90
15426;DHT22;7812;50.072;7.036;2022-11-20T16:38:54;6.70;99.90
15426;DHT22;7812;50.072;7.036;2022-11-20T16:41:20;6.70;99.90
15426;DHT22;7812;50.072;7.036;2022-11-20T16:43:50;6.60;99.90
15426;DHT22;7812;50.072;7.036;2022-11-20T16:46:19;6.60;99.90
15426;DHT22;7812;50.072;7.036;2022-11-20T16:48:51;6.60;99.90
15426;DHT22;7812;50.072;7.036;2022-11-20T16:51:17;6.60;99.90
15426;DHT22;7812;50.072;7.036;2022-11-20T16:53:43;6.60;99.90
15426;DHT22;7812;50.072;7.036;2022-11-20T16:56:17;6.50;99.90
15426;DHT22;7812;50.072;7.036;2022-11-20T16:58:48;6.50;99.90
15426;DHT22;7812;50.072;7.036;2022-11-20T17:01:16;6.50;99.90
15426;DHT22;7812;50.072;7.036;2022-11-20T17:03:43;6.50;99.90
15426;DHT22;7812;50.072;7.036;2022-11-20T17:06:21;6.50;99.90
15426;DHT22;7812;50.072;7.036;2022-11-20T17:08:47;6.40;99.90
15426;DHT22;7812;50.072;7.036;2022-11-20T17:11:16;6.40;99.90
15426;DHT22;7812;50.072;7.036;2022-11-20T17:13:42;6.40;99.90
15426;DHT22;7812;50.072;7.036;2022-11-20T17:16:14;6.40;99.90
15426;DHT22;7812;50.072;7.036;2022-11-20T17:18:40;6.40;99.90
15426;DHT22;7812;50.072;7.036;2022-11-20T17:21:06;6.40;99.90
15426;DHT22;7812;50.072;7.036;2022-11-20T17:23:39;6.30;99.90
15426;DHT22;7812;50.072;7.036;2022-11-20T17:26:08;6.40;99.90
15426;DHT22;7812;50.072;7.036;2022-11-20T17:28:34;6.30;99.90
15426;DHT22;7812;50.072;7.036;2022-11-20T17:31:06;6.20;99.90
15426;DHT22;7812;50.072;7.036;2022-11-20T17:33:34;6.30;99.90
15426;DHT22;7812;50.072;7.036;2022-11-20T17:36:01;6.20;99.90
15426;DHT22;7812;50.072;7.036;2022-11-20T17:38:27;6.20;99.90
15426;DHT22;7812;50.072;7.036;2022-11-20T17:40:52;6.10;99.90
15426;DHT22;7812;50.072;7.036;2022-11-20T17:43:18;6.10;99.90
15426;DHT22;7812;50.072;7.036;2022-11-20T17:45:44;6.10;99.90
15426;DHT22;7812;50.072;7.036;2022-11-20T17:48:10;6.10;99.90
15426;DHT22;7812;50.072;7.036;2022-11-20T17:50:36;6.20;99.90
15426;DHT22;7812;50.072;7.036;2022-11-20T17:53:02;6.20;99.90
15426;DHT22;7812;50.072;7.036;2022-11-20T17:55:28;6.20;99.90
15426;DHT22;7812;50.072;7.036;2022-11-20T17:58:13;6.20;99.90
15426;DHT22;7812;50.072;7.036;2022-11-20T18:00:39;6.20;99.90
15426;DHT22;7812;50.072;7.036;2022-11-20T18:03:05;6.20;99.90
15426;DHT22;7812;50.072;7.036;2022-11-20T18:05:30;6.20;99.90
15426;DHT22;7812;50.072;7.036;2022-11-20T18:07:56;6.30;99.90